Aroma, Indiana
Current Conditions -  °F | °C
As of 1:35 PM on Tuesday 27 Jan 2015 (Local Time) from KTYQ Reporting Station
Overcast Overcast  
Wind Chill: -6°   Ceiling: 4900
Heat Index: -2°   Visibility: 10mi
Dew Point: -12°   Wind: 6mph
Humidity: 49%   Direction: 40°NE
Pressure: 30.12"   Gusts: NA
Location:  40.1832°N, 85.9359°W
Report Text: KTYQ 271835Z AUTO 04005KT 10SM OVC049 M02/M12 A3012 RMK AO2 T10211116
Loading
Personal Weather Stations






























Interactive Weather Map New forecast layout! Learn more

10-Day Weather Forecast

Advertisements
Track Severe Weather on mobile